Escatawpa, Mississippi
Current Conditions -  °F | °C
As of 6:53 PM on Tuesday 21 Oct 2014 (Local Time) from KPQL Reporting Station
Clear Clear  
Wind Chill: 63°   Ceiling: Unl
Heat Index: 63°   Visibility: 10mi
Dew Point: 58°   Wind: 0mph
Humidity: 84%   Direction: NA
Pressure: 29.98"   Gusts: NA
Location:  30.44°N, 88.55°W
Report Text: KPQL 212353Z AUTO 00000KT 10SM CLR 17/14 A2998 RMK AO2 SLP153 T01720144 10278 20172 53004 TSNO
Loading
Personal Weather Stations






























Interactive Weather Map
Tropical Storm Tracking
New forecast layout! Learn more

10-Day Weather Forecast

Advertisements
Track Severe Weather on mobile